Time;durP1;ratioP1;P1;durP2;ratioP2;P2;SDS_P1;SDS_P2;PMS_P1;PMS_P2;Temp;Humidity;BMP_temperature;BMP_pressure;BME280_temperature;BME280_humidity;BME280_pressure;Samples;Min_cycle;Max_cycle;Signal;HPM_P1;HPM_P2
2023/08/22 00:00:07;;;;;;;11.70;5.88;;;;;;;31.20;23.13;100361.22;5007476;28;20125;-69
2023/08/22 00:02:38;;;;;;;13.25;6.30;;;;;;;31.20;22.75;100364.78;5006170;28;20044;-70
2023/08/22 00:05:07;;;;;;;9.98;5.45;;;;;;;31.26;22.29;100358.19;5006774;28;20053;-71
2023/08/22 00:07:36;;;;;;;10.07;5.43;;;;;;;31.28;22.25;100361.63;5006892;28;20042;-71
2023/08/22 00:10:05;;;;;;;10.82;5.90;;;;;;;31.23;22.09;100372.59;5009681;28;20073;-70
2023/08/22 00:12:33;;;;;;;9.23;5.70;;;;;;;31.12;22.30;100352.84;5009230;28;20050;-69
2023/08/22 00:15:04;;;;;;;10.02;5.50;;;;;;;31.15;22.84;100358.00;5007821;28;20057;-71
2023/08/22 00:17:32;;;;;;;15.27;4.68;;;;;;;31.06;22.56;100357.63;5003825;28;20046;-71
2023/08/22 00:20:04;;;;;;;11.45;5.30;;;;;;;30.95;22.33;100364.56;5010660;28;20144;-72
2023/08/22 00:22:32;;;;;;;12.10;5.13;;;;;;;30.87;22.54;100357.91;5005204;28;20060;-70
2023/08/22 00:25:11;;;;;;;7.40;4.85;;;;;;;30.68;23.02;100363.47;5003671;28;20053;-71
2023/08/22 00:27:49;;;;;;;5.97;4.43;;;;;;;30.61;23.36;100372.81;5010123;28;20053;-72
2023/08/22 00:30:24;;;;;;;8.23;4.68;;;;;;;30.52;23.26;100373.38;5007926;28;20053;-70
2023/08/22 00:32:53;;;;;;;8.02;4.75;;;;;;;30.53;23.54;100367.06;5008355;28;20057;-71
2023/08/22 00:35:28;;;;;;;11.13;4.72;;;;;;;30.58;23.41;100375.69;5004842;28;20041;-72
2023/08/22 00:37:56;;;;;;;7.88;4.40;;;;;;;30.59;23.57;100364.03;5005918;28;20073;-69
2023/08/22 00:40:25;;;;;;;5.75;3.92;;;;;;;30.52;23.56;100368.03;5004663;28;20074;-71
2023/08/22 00:42:53;;;;;;;9.98;4.40;;;;;;;30.52;23.81;100375.19;5005413;28;20112;-70
2023/08/22 00:45:22;;;;;;;10.65;4.40;;;;;;;30.50;23.40;100374.41;5009621;28;20583;-69
2023/08/22 00:47:51;;;;;;;8.43;4.15;;;;;;;30.50;23.88;100371.75;5010437;28;20565;-70
2023/08/22 00:50:20;;;;;;;11.02;3.90;;;;;;;30.33;23.64;100375.41;5007271;28;20496;-71
2023/08/22 00:52:50;;;;;;;11.43;4.32;;;;;;;30.27;24.15;100369.47;5006994;28;20042;-71
2023/08/22 00:55:21;;;;;;;6.50;4.25;;;;;;;30.32;24.23;100371.03;5002064;28;20050;-70
2023/08/22 00:57:56;;;;;;;8.20;4.03;;;;;;;30.34;24.31;100377.13;5004094;28;20046;-71
2023/08/22 01:00:25;;;;;;;6.55;3.15;;;;;;;30.30;24.68;100379.13;5009202;28;20046;-70
2023/08/22 01:02:54;;;;;;;8.57;3.45;;;;;;;30.26;24.42;100378.47;5006194;28;20058;-69
2023/08/22 01:05:27;;;;;;;6.88;3.75;;;;;;;30.23;24.69;100378.59;5005065;28;20049;-68
2023/08/22 01:08:01;;;;;;;8.60;2.15;;;;;;;30.18;24.80;100371.81;5006708;28;20048;-70
2023/08/22 01:10:33;;;;;;;6.80;1.70;;;;;;;30.01;25.30;100370.13;5009233;28;20491;-71
2023/08/22 01:13:11;;;;;;;6.60;1.42;;;;;;;29.93;25.48;100375.03;4993329;28;20542;-69
2023/08/22 01:15:42;;;;;;;3.85;1.58;;;;;;;29.86;25.51;100370.03;4992692;28;20077;-69
2023/08/22 01:18:20;;;;;;;8.35;1.30;;;;;;;29.80;25.71;100380.19;5000042;28;20149;-69
2023/08/22 01:20:49;;;;;;;6.57;1.38;;;;;;;29.73;26.08;100385.00;4998997;28;20054;-71
2023/08/22 01:23:19;;;;;;;6.43;1.20;;;;;;;29.67;25.94;100385.34;5004572;28;20489;-71
2023/08/22 01:25:47;;;;;;;3.22;1.35;;;;;;;29.65;25.97;100388.09;5003382;28;20058;-70
2023/08/22 01:28:22;;;;;;;8.20;1.90;;;;;;;29.60;25.72;100383.97;5007527;28;20143;-71
2023/08/22 01:30:58;;;;;;;6.78;1.75;;;;;;;29.53;26.08;100387.94;4996431;28;20085;-71
2023/08/22 01:33:33;;;;;;;12.00;1.90;;;;;;;29.34;26.44;100388.06;4997286;28;20713;-71
2023/08/22 01:36:03;;;;;;;5.18;1.80;;;;;;;29.32;26.78;100395.28;5001404;28;20111;-70
2023/08/22 01:38:37;;;;;;;4.70;2.10;;;;;;;29.23;27.11;100401.97;5002460;28;20148;-70
2023/08/22 01:41:07;;;;;;;4.95;1.83;;;;;;;29.10;27.52;100398.25;5001466;28;20050;-70
2023/08/22 01:43:36;;;;;;;3.33;1.30;;;;;;;29.05;27.54;100401.13;5000450;28;20061;-70
2023/08/22 01:46:05;;;;;;;3.03;1.40;;;;;;;29.00;27.66;100404.03;4995835;28;20053;-72
2023/08/22 01:48:33;;;;;;;3.33;1.85;;;;;;;28.90;28.20;100408.09;5004054;28;20532;-71
2023/08/22 01:51:02;;;;;;;5.30;1.20;;;;;;;28.87;28.42;100407.44;5006582;28;20697;-72
2023/08/22 01:53:33;;;;;;;2.75;1.33;;;;;;;28.83;28.43;100415.56;4998765;28;20046;-73
2023/08/22 01:56:02;;;;;;;5.65;1.27;;;;;;;28.81;28.92;100411.25;5004607;28;20062;-74
2023/08/22 01:58:30;;;;;;;4.18;1.35;;;;;;;28.74;28.90;100400.06;4995328;28;20047;-73
2023/08/22 02:00:59;;;;;;;3.53;1.20;;;;;;;28.65;28.73;100405.84;5003048;28;20053;-70
2023/08/22 02:03:28;;;;;;;3.35;1.80;;;;;;;28.54;28.88;100411.75;5006094;28;20057;-72
2023/08/22 02:05:56;;;;;;;3.45;1.42;;;;;;;28.46;29.30;100416.56;4996598;28;20046;-71
2023/08/22 02:08:25;;;;;;;4.20;1.20;;;;;;;28.35;29.43;100424.22;5003293;28;20053;-71
2023/08/22 02:10:55;;;;;;;2.28;1.10;;;;;;;28.20;30.11;100428.50;4997367;28;20054;-70
2023/08/22 02:13:24;;;;;;;2.58;1.40;;;;;;;28.08;30.83;100427.28;5008238;28;20139;-70
2023/08/22 02:15:53;;;;;;;2.50;1.00;;;;;;;27.94;30.86;100427.09;5001093;28;20126;-69
2023/08/22 02:18:22;;;;;;;4.07;1.35;;;;;;;27.85;30.78;100424.88;5006352;28;20571;-71
2023/08/22 02:20:54;;;;;;;2.22;1.08;;;;;;;27.77;31.25;100434.03;5002315;28;20046;-69
2023/08/22 02:23:22;;;;;;;6.55;1.25;;;;;;;27.66;31.54;100448.78;5001179;28;20126;-69
2023/08/22 02:25:55;;;;;;;3.40;0.85;;;;;;;27.51;30.97;100450.34;4999172;28;20046;-70
2023/08/22 02:28:24;;;;;;;6.90;1.00;;;;;;;27.38;30.45;100447.38;4988322;28;20085;-70
2023/08/22 02:30:56;;;;;;;3.22;1.00;;;;;;;27.24;30.51;100447.16;5003300;28;20516;-70
2023/08/22 02:33:25;;;;;;;3.05;0.90;;;;;;;27.07;31.00;100450.50;5001326;28;20057;-71
2023/08/22 02:35:55;;;;;;;4.30;0.90;;;;;;;26.91;31.35;100459.13;5003435;28;20045;-72
2023/08/22 02:38:24;;;;;;;2.15;1.02;;;;;;;26.77;31.77;100461.53;5002117;28;20052;-70
2023/08/22 02:40:53;;;;;;;2.05;0.82;;;;;;;26.71;31.79;100472.41;5003006;28;20046;-73
2023/08/22 02:43:23;;;;;;;6.00;1.05;;;;;;;26.61;31.34;100477.22;4995477;28;20650;-72
2023/08/22 02:45:53;;;;;;;2.83;0.77;;;;;;;26.47;31.34;100480.41;5021969;28;20113;-74
2023/08/22 02:48:22;;;;;;;4.88;0.93;;;;;;;26.33;32.05;100488.06;5001890;28;20149;-74
2023/08/22 02:50:51;;;;;;;1.30;0.82;;;;;;;26.13;32.31;100487.06;5008807;28;20049;-73
2023/08/22 02:53:19;;;;;;;5.05;1.10;;;;;;;26.02;32.19;100488.41;5003983;28;20137;-73
2023/08/22 02:55:49;;;;;;;3.13;0.77;;;;;;;25.89;32.68;100494.19;5007474;28;20492;-73
2023/08/22 02:58:26;;;;;;;4.32;1.05;;;;;;;25.78;32.92;100499.00;5007928;28;20049;-73
2023/08/22 03:00:56;;;;;;;1.20;0.68;;;;;;;25.67;33.05;100503.84;5006994;28;20081;-73
2023/08/22 03:03:24;;;;;;;1.77;0.85;;;;;;;25.57;32.90;100507.78;5019733;28;20058;-74
2023/08/22 03:05:53;;;;;;;1.45;0.65;;;;;;;25.44;33.34;100513.50;5008640;28;20054;-73
2023/08/22 03:08:21;;;;;;;2.15;1.20;;;;;;;25.37;32.97;100519.06;5006603;28;20046;-72
2023/08/22 03:10:50;;;;;;;2.35;0.82;;;;;;;25.33;33.45;100520.09;5009832;28;20042;-71
2023/08/22 03:13:19;;;;;;;4.32;0.93;;;;;;;25.27;33.54;100529.13;5009282;28;20060;-72
2023/08/22 03:15:49;;;;;;;2.67;0.82;;;;;;;25.19;33.61;100537.31;5023502;28;20192;-70
2023/08/22 03:18:18;;;;;;;4.90;0.90;;;;;;;25.11;33.61;100542.00;5019947;28;20042;-70
2023/08/22 03:20:49;;;;;;;2.38;0.80;;;;;;;25.02;33.58;100547.63;5026188;28;20046;-72
2023/08/22 03:23:18;;;;;;;3.05;0.73;;;;;;;24.96;34.37;100550.47;5005192;28;20540;-72
2023/08/22 03:25:46;;;;;;;5.20;1.00;;;;;;;24.88;33.87;100553.38;5009455;28;20101;-71
2023/08/22 03:28:15;;;;;;;3.20;1.30;;;;;;;24.76;33.85;100552.00;4998131;28;20196;-71
2023/08/22 03:30:43;;;;;;;2.70;1.15;;;;;;;24.61;34.10;100560.41;4986358;28;20721;-72
2023/08/22 03:33:14;;;;;;;6.32;1.33;;;;;;;24.50;34.21;100568.69;4988679;28;20050;-73
2023/08/22 03:35:43;;;;;;;1.63;0.80;;;;;;;24.40;34.78;100569.88;4990329;28;20054;-70
2023/08/22 03:38:12;;;;;;;3.33;0.90;;;;;;;24.29;34.63;100583.41;4987157;28;20050;-73
2023/08/22 03:40:40;;;;;;;2.25;0.73;;;;;;;24.18;35.17;100591.63;4979747;28;20412;-78
2023/08/22 03:43:09;;;;;;;2.13;0.70;;;;;;;24.12;35.04;100585.66;4985591;28;20054;-73
2023/08/22 03:45:38;;;;;;;3.20;1.10;;;;;;;24.02;35.29;100598.28;4980710;28;20051;-72
2023/08/22 03:48:08;;;;;;;2.88;0.80;;;;;;;23.94;35.25;100601.16;4987958;28;20051;-73
2023/08/22 03:50:39;;;;;;;1.35;0.70;;;;;;;23.87;35.44;100602.25;4983458;28;20076;-73
2023/08/22 03:53:08;;;;;;;1.63;0.80;;;;;;;23.79;36.21;100609.50;4990513;28;20057;-72
2023/08/22 03:55:38;;;;;;;1.40;0.60;;;;;;;23.71;35.86;100600.88;4985006;28;20468;-72
2023/08/22 03:58:07;;;;;;;1.70;0.90;;;;;;;23.62;35.63;100610.81;4986150;28;20137;-73
2023/08/22 04:00:35;;;;;;;2.20;0.77;;;;;;;23.56;36.38;100610.97;4984827;28;20061;-73
2023/08/22 04:03:04;;;;;;;3.22;0.60;;;;;;;23.50;35.77;100619.06;4986118;28;20047;-72
2023/08/22 04:05:42;;;;;;;2.20;0.80;;;;;;;23.45;36.20;100625.34;4987899;28;20207;-72
2023/08/22 04:08:11;;;;;;;1.95;0.90;;;;;;;23.37;36.45;100626.41;4986757;28;20496;-73
2023/08/22 04:10:40;;;;;;;1.70;0.60;;;;;;;23.28;36.60;100631.06;4984620;28;20118;-73
2023/08/22 04:13:08;;;;;;;0.77;0.50;;;;;;;23.15;36.62;100639.28;4982945;28;20050;-72
2023/08/22 04:15:39;;;;;;;2.33;0.70;;;;;;;23.06;37.27;100639.50;4984790;28;20077;-71
2023/08/22 04:18:08;;;;;;;4.50;1.00;;;;;;;22.97;37.27;100644.97;4982206;28;20046;-70
2023/08/22 04:20:39;;;;;;;1.17;0.70;;;;;;;22.87;37.36;100646.97;4981607;28;20050;-71
2023/08/22 04:23:08;;;;;;;2.08;0.80;;;;;;;22.78;37.53;100655.94;4983442;28;20543;-72
2023/08/22 04:25:38;;;;;;;2.45;0.80;;;;;;;22.67;38.02;100655.31;4985189;28;20148;-73
2023/08/22 04:28:07;;;;;;;1.90;0.70;;;;;;;22.65;38.24;100665.03;4990941;28;20057;-74
2023/08/22 04:30:35;;;;;;;2.00;0.80;;;;;;;22.54;38.15;100664.38;5005008;28;20250;-74
2023/08/22 04:33:04;;;;;;;2.42;0.90;;;;;;;22.46;38.37;100663.69;5011390;28;20054;-72
2023/08/22 04:35:32;;;;;;;3.45;0.85;;;;;;;22.40;38.67;100677.00;5004827;28;20062;-73
2023/08/22 04:38:04;;;;;;;2.97;0.80;;;;;;;22.29;38.42;100675.47;5005647;28;20100;-72
2023/08/22 04:40:33;;;;;;;2.78;0.90;;;;;;;22.25;39.00;100680.81;5002740;28;20073;-72
2023/08/22 04:43:01;;;;;;;2.30;0.70;;;;;;;22.20;39.17;100680.03;5002766;28;20058;-72
2023/08/22 04:45:30;;;;;;;1.90;1.08;;;;;;;22.14;39.27;100683.63;5006573;28;20057;-70
2023/08/22 04:47:58;;;;;;;3.15;0.75;;;;;;;22.07;39.21;100693.41;4999529;28;20463;-72
2023/08/22 04:50:28;;;;;;;1.98;0.98;;;;;;;22.03;39.46;100696.13;5004967;28;20055;-71
2023/08/22 04:52:57;;;;;;;2.03;0.77;;;;;;;21.95;39.81;100688.38;5003800;28;20041;-71
2023/08/22 04:55:28;;;;;;;1.50;0.65;;;;;;;21.83;39.87;100705.28;4997598;28;20050;-71
2023/08/22 04:57:56;;;;;;;2.58;0.88;;;;;;;21.75;40.11;100701.91;5004209;28;20046;-71
2023/08/22 05:00:25;;;;;;;1.45;0.80;;;;;;;21.68;40.42;100706.41;5006773;28;20086;-71
2023/08/22 05:02:56;;;;;;;2.65;0.70;;;;;;;21.64;40.36;100711.75;5007287;28;20049;-71
2023/08/22 05:05:24;;;;;;;2.00;0.70;;;;;;;21.52;40.44;100708.44;5002869;28;20104;-72
2023/08/22 05:07:53;;;;;;;1.85;0.60;;;;;;;21.52;40.53;100718.09;5005113;28;20384;-71
2023/08/22 05:10:22;;;;;;;2.33;0.88;;;;;;;21.44;40.48;100725.22;5005475;28;20052;-70
2023/08/22 05:12:54;;;;;;;1.08;0.80;;;;;;;21.26;40.54;100714.09;5006011;28;20077;-71
2023/08/22 05:15:23;;;;;;;2.10;0.93;;;;;;;21.22;41.19;100730.81;5004412;28;20734;-71
2023/08/22 05:17:51;;;;;;;1.67;0.90;;;;;;;21.08;41.63;100741.53;5002999;28;20441;-72
2023/08/22 05:20:20;;;;;;;2.47;1.00;;;;;;;21.04;41.79;100750.34;5000802;28;20104;-71
2023/08/22 05:22:48;;;;;;;2.05;1.00;;;;;;;20.99;42.12;100748.69;5003171;28;20061;-71
2023/08/22 05:25:18;;;;;;;2.10;0.90;;;;;;;20.95;42.66;100749.63;5006189;28;20053;-71
2023/08/22 05:27:47;;;;;;;3.35;1.08;;;;;;;20.85;42.75;100754.13;5005165;28;20323;-71
2023/08/22 05:30:17;;;;;;;2.47;0.80;;;;;;;20.76;42.86;100760.38;5006816;28;20673;-72
2023/08/22 05:32:46;;;;;;;2.17;0.93;;;;;;;20.69;43.02;100764.84;5002127;28;20050;-71
2023/08/22 05:35:15;;;;;;;4.93;1.00;;;;;;;20.61;43.31;100766.66;5001420;28;20237;-71
2023/08/22 05:37:43;;;;;;;3.15;1.00;;;;;;;20.49;43.58;100765.03;5003968;28;20079;-71
2023/08/22 05:40:13;;;;;;;2.25;0.80;;;;;;;20.39;43.57;100765.16;5002666;28;20053;-72
2023/08/22 05:42:41;;;;;;;1.98;0.95;;;;;;;20.34;44.02;100772.19;5004901;28;20121;-73
2023/08/22 05:45:10;;;;;;;2.58;0.80;;;;;;;20.27;44.29;100772.28;5005823;28;20077;-71
2023/08/22 05:47:41;;;;;;;4.03;1.10;;;;;;;20.21;44.08;100774.97;5003907;28;20046;-70
2023/08/22 05:50:10;;;;;;;3.70;0.90;;;;;;;20.18;44.04;100782.88;5000460;28;20062;-71
2023/08/22 05:52:39;;;;;;;6.32;1.33;;;;;;;20.11;44.22;100786.44;5000615;28;20595;-71
2023/08/22 05:55:08;;;;;;;2.45;0.85;;;;;;;19.99;45.05;100778.69;5000000;28;20049;-71
2023/08/22 05:57:37;;;;;;;1.15;0.60;;;;;;;19.94;45.27;100798.84;5003792;28;20125;-72
2023/08/22 06:00:08;;;;;;;2.13;0.80;;;;;;;19.79;45.78;100782.34;5001753;28;20046;-69
2023/08/22 06:02:36;;;;;;;4.17;0.83;;;;;;;19.82;45.80;100794.59;5002659;28;20869;-71
2023/08/22 06:05:07;;;;;;;3.20;1.58;;;;;;;19.78;45.71;100793.72;5007874;28;20061;-71
2023/08/22 06:07:36;;;;;;;1.92;1.00;;;;;;;19.70;46.34;100803.44;5007724;28;20169;-71
2023/08/22 06:10:05;;;;;;;2.70;0.85;;;;;;;19.65;46.23;100799.91;5006064;28;20551;-71
2023/08/22 06:12:36;;;;;;;3.15;0.88;;;;;;;19.63;46.70;100805.19;5010228;28;20575;-71
2023/08/22 06:15:05;;;;;;;3.88;1.02;;;;;;;19.62;46.42;100802.56;5003909;28;20100;-70
2023/08/22 06:17:34;;;;;;;7.70;1.58;;;;;;;19.60;46.40;100804.31;5004003;28;20054;-71
2023/08/22 06:20:04;;;;;;;4.03;1.17;;;;;;;19.57;46.58;100820.97;5006780;28;20543;-71
2023/08/22 06:22:34;;;;;;;2.75;0.90;;;;;;;19.54;46.35;100815.75;5012224;28;20054;-70
2023/08/22 06:25:04;;;;;;;3.58;1.45;;;;;;;19.51;46.45;100822.75;5007883;28;20072;-70
2023/08/22 06:27:33;;;;;;;2.47;0.90;;;;;;;19.49;47.12;100827.16;5007479;28;20050;-70
2023/08/22 06:30:02;;;;;;;1.92;0.80;;;;;;;19.43;47.05;100828.06;4984267;28;20531;-70
2023/08/22 06:32:31;;;;;;;1.90;0.98;;;;;;;19.38;47.33;100840.34;4983753;28;20052;-70
2023/08/22 06:35:01;;;;;;;1.85;1.13;;;;;;;19.34;47.33;100846.47;4987560;28;20137;-72
2023/08/22 06:37:29;;;;;;;4.43;1.05;;;;;;;19.30;47.97;100840.38;4986941;28;20073;-71
2023/08/22 06:39:59;;;;;;;1.67;0.80;;;;;;;19.22;47.79;100837.78;4987027;28;20112;-71
2023/08/22 06:42:28;;;;;;;2.15;0.95;;;;;;;19.20;47.73;100851.81;4988991;28;20050;-71
2023/08/22 06:44:57;;;;;;;2.88;1.00;;;;;;;19.12;48.51;100857.06;4986978;28;20051;-71
2023/08/22 06:47:25;;;;;;;1.20;0.93;;;;;;;19.08;49.22;100857.06;4989793;28;20046;-70
2023/08/22 06:49:54;;;;;;;2.38;1.00;;;;;;;18.93;48.99;100848.41;4987039;28;20058;-71
2023/08/22 06:52:22;;;;;;;3.85;1.25;;;;;;;18.90;49.93;100858.91;4990341;28;20128;-70
2023/08/22 06:54:51;;;;;;;2.42;1.08;;;;;;;18.84;49.52;100858.91;4983760;28;20539;-70
2023/08/22 06:57:21;;;;;;;3.85;1.40;;;;;;;18.81;49.62;100865.03;4989048;28;20722;-71
2023/08/22 06:59:52;;;;;;;4.57;1.25;;;;;;;18.78;49.52;100867.69;4986140;28;20058;-71
2023/08/22 07:02:21;;;;;;;5.50;1.08;;;;;;;18.75;49.61;100870.25;4986985;28;20061;-71
2023/08/22 07:04:50;;;;;;;1.55;1.00;;;;;;;18.70;50.18;100874.63;4989788;28;20050;-71
2023/08/22 07:07:19;;;;;;;10.40;1.30;;;;;;;18.66;50.19;100879.91;4988764;28;20097;-71
2023/08/22 07:09:52;;;;;;;1.77;1.10;;;;;;;18.61;50.13;100882.53;4986121;28;20101;-70
2023/08/22 07:12:22;;;;;;;1.80;0.90;;;;;;;18.56;50.19;100885.16;4989724;28;20058;-70
2023/08/22 07:14:51;;;;;;;1.77;0.93;;;;;;;18.51;50.98;100892.16;4991815;28;20689;-70
2023/08/22 07:17:19;;;;;;;3.10;0.88;;;;;;;18.44;51.88;100887.78;4985849;28;20042;-70
2023/08/22 07:19:48;;;;;;;1.25;0.70;;;;;;;18.36;51.63;100887.78;4986035;28;20051;-70
2023/08/22 07:22:16;;;;;;;2.45;1.00;;;;;;;18.30;51.82;100884.28;4989646;28;20049;-70
2023/08/22 07:24:45;;;;;;;1.83;1.13;;;;;;;18.26;51.92;100890.41;4984114;28;20169;-71
2023/08/22 07:27:14;;;;;;;3.80;1.00;;;;;;;18.24;51.99;100898.25;4989782;28;20137;-70
2023/08/22 07:29:44;;;;;;;1.17;1.00;;;;;;;18.19;52.16;100900.03;5024839;28;20058;-70
2023/08/22 07:32:13;;;;;;;1.05;0.75;;;;;;;18.13;53.07;100911.34;5028957;28;20085;-69
2023/08/22 07:34:44;;;;;;;3.70;1.10;;;;;;;18.03;52.43;100909.59;5031481;28;20050;-70
2023/08/22 07:37:12;;;;;;;1.88;0.98;;;;;;;17.93;53.69;100920.91;5025631;28;20123;-68
2023/08/22 07:39:41;;;;;;;5.13;0.82;;;;;;;17.85;54.57;100920.91;5028281;28;20069;-70
2023/08/22 07:42:10;;;;;;;3.17;1.23;;;;;;;17.78;54.17;100920.00;5024357;28;20065;-70
2023/08/22 07:44:38;;;;;;;4.20;1.00;;;;;;;17.72;54.44;100917.34;5029430;28;20053;-70
2023/08/22 07:47:08;;;;;;;6.35;1.15;;;;;;;17.71;54.26;100923.47;5025879;28;20053;-70
2023/08/22 07:49:37;;;;;;;2.92;1.00;;;;;;;17.71;54.10;100923.47;5025091;28;20076;-71
2023/08/22 07:52:06;;;;;;;2.22;0.80;;;;;;;17.70;53.66;100926.94;5027095;28;20057;-70
2023/08/22 07:54:34;;;;;;;3.90;1.10;;;;;;;17.66;54.13;100933.06;5019998;28;20049;-71
2023/08/22 07:57:05;;;;;;;3.15;1.02;;;;;;;17.64;53.74;100926.03;5027522;28;20107;-70
2023/08/22 07:59:34;;;;;;;3.03;1.05;;;;;;;17.62;54.76;100933.03;5030223;28;20052;-70
2023/08/22 08:02:03;;;;;;;2.45;1.00;;;;;;;17.57;54.31;100930.41;5027300;28;20042;-70
2023/08/22 08:04:34;;;;;;;2.22;1.02;;;;;;;17.50;54.96;100934.72;5028040;28;20501;-70
2023/08/22 08:07:03;;;;;;;2.45;1.17;;;;;;;17.43;55.22;100934.69;5022499;28;20487;-71
2023/08/22 08:09:35;;;;;;;3.75;0.93;;;;;;;17.36;56.68;100939.91;5027492;28;20055;-70
2023/08/22 08:12:04;;;;;;;5.57;1.42;;;;;;;17.28;56.71;100943.34;5025552;28;20077;-71
2023/08/22 08:14:32;;;;;;;3.92;1.17;;;;;;;17.20;56.18;100945.03;5022667;28;20056;-70
2023/08/22 08:17:01;;;;;;;1.50;1.08;;;;;;;17.13;56.98;100946.75;5025082;28;20053;-70
2023/08/22 08:19:32;;;;;;;2.30;0.75;;;;;;;17.03;57.40;100947.56;5020868;28;20535;-70
2023/08/22 08:22:02;;;;;;;4.22;0.95;;;;;;;16.96;57.43;100951.88;5025924;28;20115;-70
2023/08/22 08:24:30;;;;;;;4.28;1.20;;;;;;;16.93;57.05;100950.13;5027400;28;20041;-70
2023/08/22 08:26:59;;;;;;;1.35;1.00;;;;;;;16.91;58.16;100948.38;5027396;28;20524;-70
2023/08/22 08:29:37;;;;;;;2.65;1.15;;;;;;;16.90;57.60;100950.09;5025840;28;20069;-71
2023/08/22 08:32:13;;;;;;;2.28;1.10;;;;;;;16.90;57.30;100957.94;5026325;28;20088;-71
2023/08/22 08:34:41;;;;;;;2.63;1.10;;;;;;;16.89;57.21;100956.19;5022781;28;20107;-71
2023/08/22 08:37:12;;;;;;;2.20;1.05;;;;;;;16.88;57.71;100959.69;5026020;28;20052;-71
2023/08/22 08:39:40;;;;;;;2.03;0.90;;;;;;;16.86;58.29;100956.19;5026956;28;20053;-72
2023/08/22 08:42:13;;;;;;;1.80;0.77;;;;;;;16.85;57.59;100964.88;5023955;28;20048;-70
2023/08/22 08:44:43;;;;;;;3.53;1.00;;;;;;;16.83;58.09;100961.38;5026844;28;20057;-70
2023/08/22 08:47:14;;;;;;;3.80;1.13;;;;;;;16.79;59.08;100954.41;5022993;28;20096;-69
2023/08/22 08:49:43;;;;;;;2.33;0.95;;;;;;;16.70;59.62;100967.34;5031842;28;20055;-71
2023/08/22 08:52:15;;;;;;;2.55;1.05;;;;;;;16.62;60.51;100964.66;5025815;28;20056;-70
2023/08/22 08:54:44;;;;;;;1.53;0.60;;;;;;;16.54;61.09;100968.97;5026808;28;20049;-70
2023/08/22 08:57:13;;;;;;;2.40;1.08;;;;;;;16.45;61.11;100967.16;5025074;28;20286;-70
2023/08/22 08:59:43;;;;;;;4.25;1.10;;;;;;;16.45;61.17;100964.53;5026196;28;20057;-71
2023/08/22 09:02:17;;;;;;;3.63;1.05;;;;;;;16.46;61.48;100966.28;5028284;28;20522;-70
2023/08/22 09:04:45;;;;;;;1.58;1.00;;;;;;;16.43;62.14;100976.69;5020582;28;20545;-69
2023/08/22 09:07:19;;;;;;;2.80;0.95;;;;;;;16.40;61.56;100976.69;5019630;28;20525;-71
2023/08/22 09:09:48;;;;;;;3.00;0.90;;;;;;;16.40;60.91;100976.69;5027112;28;20134;-70
2023/08/22 09:12:16;;;;;;;2.45;0.90;;;;;;;16.40;61.38;100974.06;5026845;28;20041;-71
2023/08/22 09:14:46;;;;;;;2.60;0.90;;;;;;;16.37;61.70;100970.53;5030095;28;20158;-71
2023/08/22 09:17:16;;;;;;;1.92;0.80;;;;;;;16.33;62.45;100975.75;5024498;28;20057;-69
2023/08/22 09:19:45;;;;;;;1.95;0.98;;;;;;;16.25;62.93;100977.41;5027539;28;20056;-71
2023/08/22 09:22:16;;;;;;;2.13;1.02;;;;;;;16.19;63.28;100977.31;5038168;28;20373;-68
2023/08/22 09:24:54;;;;;;;3.03;1.08;;;;;;;16.12;63.28;100979.00;5033722;28;20107;-68
2023/08/22 09:27:27;;;;;;;1.40;0.98;;;;;;;16.12;63.74;100985.97;5027619;28;20540;-69
2023/08/22 09:30:02;;;;;;;2.92;1.00;;;;;;;16.09;63.41;100981.59;5025385;28;20132;-70
2023/08/22 09:32:30;;;;;;;4.25;1.52;;;;;;;16.09;63.67;100986.81;5022024;28;20048;-70
2023/08/22 09:35:00;;;;;;;3.55;1.05;;;;;;;16.09;62.85;100986.81;5025969;28;20049;-70
2023/08/22 09:37:34;;;;;;;1.65;0.90;;;;;;;16.05;63.02;100984.16;5024105;28;20041;-70
2023/08/22 09:40:05;;;;;;;3.38;1.02;;;;;;;16.02;62.84;100994.56;5026849;28;20139;-70
2023/08/22 09:42:34;;;;;;;1.77;0.95;;;;;;;15.97;63.85;100991.03;5028189;28;20053;-70
2023/08/22 09:45:03;;;;;;;6.53;1.38;;;;;;;15.92;63.69;100996.19;5030308;28;20053;-70
2023/08/22 09:47:32;;;;;;;1.15;0.80;;;;;;;15.92;64.14;100998.81;5027562;28;20126;-70
2023/08/22 09:50:02;;;;;;;1.83;0.98;;;;;;;15.89;63.72;100998.75;5027697;28;20116;-70
2023/08/22 09:52:33;;;;;;;2.78;1.13;;;;;;;15.87;64.60;101003.06;5030507;28;20513;-70
2023/08/22 09:55:02;;;;;;;3.50;0.80;;;;;;;15.84;64.07;100997.84;5032039;28;20096;-70
2023/08/22 09:57:32;;;;;;;3.72;1.35;;;;;;;15.79;63.67;101003.00;5028600;28;20692;-70
2023/08/22 10:00:04;;;;;;;4.20;1.05;;;;;;;15.77;64.45;101006.44;5027577;28;20053;-69
2023/08/22 10:02:36;;;;;;;3.03;1.17;;;;;;;15.75;64.79;101000.34;5028190;28;20060;-70
2023/08/22 10:05:06;;;;;;;2.22;1.30;;;;;;;15.73;65.33;100999.44;5021215;28;20587;-70
2023/08/22 10:07:37;;;;;;;3.78;0.95;;;;;;;15.65;64.98;100992.38;5028830;28;20137;-70
2023/08/22 10:10:07;;;;;;;1.10;0.77;;;;;;;15.72;65.42;101008.13;5029527;28;20487;-71
2023/08/22 10:12:37;;;;;;;1.80;1.15;;;;;;;15.70;65.35;101003.75;5026366;28;20531;-70
2023/08/22 10:15:11;;;;;;;2.22;0.98;;;;;;;15.69;65.61;101015.03;5024903;28;20516;-70
2023/08/22 10:17:40;;;;;;;5.53;1.17;;;;;;;15.67;65.56;101014.13;5025080;28;20065;-70
2023/08/22 10:20:13;;;;;;;4.50;1.23;;;;;;;15.67;65.75;101011.53;5023905;28;20042;-70
2023/08/22 10:22:42;;;;;;;;;;;;;;;15.62;65.88;101012.31;5029473;28;20122;-69
2023/08/22 10:25:11;;;;;;;5.25;1.58;;;;;;;15.52;66.67;101013.91;5027831;28;20354;-70
2023/08/22 10:27:41;;;;;;;1.50;0.80;;;;;;;15.47;66.61;101015.59;5032082;28;20056;-71
2023/08/22 10:30:21;;;;;;;2.25;1.10;;;;;;;15.44;66.73;101011.22;5030060;28;20393;-70
2023/08/22 10:33:07;;;;;;;2.05;1.33;;;;;;;15.36;67.15;101014.56;5026943;28;20069;-69
2023/08/22 10:35:36;;;;;;;5.53;0.90;;;;;;;15.31;67.64;101016.25;5030951;28;20037;-70
2023/08/22 10:38:06;;;;;;;2.47;1.05;;;;;;;15.27;67.03;101017.91;5027202;28;20535;-70
2023/08/22 10:40:35;;;;;;;1.77;1.02;;;;;;;15.28;67.07;101014.47;5027308;28;20049;-70
2023/08/22 10:43:12;;;;;;;2.85;1.10;;;;;;;15.29;66.73;101018.81;5026543;28;20054;-73
2023/08/22 10:45:53;;;;;;;3.15;0.75;;;;;;;15.30;66.34;101017.94;5029694;28;20060;-71
2023/08/22 10:48:23;;;;;;;2.05;1.23;;;;;;;15.28;66.37;101025.78;5025066;28;20092;-71
2023/08/22 10:50:52;;;;;;;1.90;1.00;;;;;;;15.28;65.99;101025.78;5022687;28;20488;-71
2023/08/22 10:53:29;;;;;;;2.50;0.98;;;;;;;15.26;67.09;101026.59;5026897;28;20067;-71
2023/08/22 10:56:17;;;;;;;3.60;1.27;;;;;;;15.23;66.66;101027.44;5033805;28;20046;-71
2023/08/22 10:58:57;;;;;;;2.88;0.90;;;;;;;15.19;66.70;101032.59;5025116;28;20124;-70
2023/08/22 11:01:27;;;;;;;4.45;1.38;;;;;;;15.16;67.23;101038.59;5027322;28;20057;-70
2023/08/22 11:03:57;;;;;;;2.40;1.38;;;;;;;15.12;67.97;101044.66;5024106;28;20049;-71
2023/08/22 11:06:26;;;;;;;2.58;1.20;;;;;;;15.12;67.26;101043.75;5027030;28;20509;-70
2023/08/22 11:08:57;;;;;;;2.00;1.23;;;;;;;15.11;67.30;101055.03;5024212;28;20120;-70
2023/08/22 11:11:27;;;;;;;1.93;0.97;;;;;;;15.07;67.41;101056.72;5027712;28;20045;-70
2023/08/22 11:13:55;;;;;;;4.97;1.00;;;;;;;15.06;67.50;101057.56;5027196;28;20049;-70
2023/08/22 11:16:24;;;;;;;2.13;1.25;;;;;;;15.04;67.56;101052.31;5029802;28;20045;-70
2023/08/22 11:18:53;;;;;;;1.55;1.00;;;;;;;15.04;68.05;101049.72;5023383;28;20454;-71
2023/08/22 11:21:24;;;;;;;2.45;1.08;;;;;;;15.02;67.77;101048.81;5026719;28;20108;-71
2023/08/22 11:23:54;;;;;;;1.95;1.05;;;;;;;14.97;68.38;101045.25;5028882;28;20046;-71
2023/08/22 11:26:24;;;;;;;3.13;0.80;;;;;;;14.96;68.63;101047.88;5023338;28;20046;-71
2023/08/22 11:28:53;;;;;;;3.78;1.10;;;;;;;14.96;68.62;101046.13;5026167;28;20045;-71
2023/08/22 11:31:23;;;;;;;2.53;1.05;;;;;;;14.93;69.12;101053.00;5030490;28;20572;-71
2023/08/22 11:33:52;;;;;;;2.35;1.30;;;;;;;14.86;69.53;101058.09;5026963;28;20068;-71
2023/08/22 11:36:24;;;;;;;2.67;1.20;;;;;;;14.85;69.84;101060.72;5026379;28;20046;-70